sensor_id;sensor_type;location;lat;lon;timestamp;temperature;humidity
4757;DHT22;2392;52.578;13.426;2023-02-01T00:00:02;4.40;99.90
4757;DHT22;2392;52.578;13.426;2023-02-01T00:02:34;4.40;99.90
4757;DHT22;2392;52.578;13.426;2023-02-01T00:05:07;4.50;99.90
4757;DHT22;2392;52.578;13.426;2023-02-01T00:07:34;4.50;99.90
4757;DHT22;2392;52.578;13.426;2023-02-01T00:10:04;4.50;99.90
4757;DHT22;2392;52.578;13.426;2023-02-01T00:12:32;4.50;99.90
4757;DHT22;2392;52.578;13.426;2023-02-01T00:14:59;4.40;99.90
4757;DHT22;2392;52.578;13.426;2023-02-01T00:17:26;4.40;99.90
4757;DHT22;2392;52.578;13.426;2023-02-01T00:19:53;4.40;99.90
4757;DHT22;2392;52.578;13.426;2023-02-01T00:22:24;4.40;99.90
4757;DHT22;2392;52.578;13.426;2023-02-01T00:24:51;4.30;99.90
4757;DHT22;2392;52.578;13.426;2023-02-01T00:27:19;4.30;99.90
4757;DHT22;2392;52.578;13.426;2023-02-01T00:29:46;4.20;99.90
4757;DHT22;2392;52.578;13.426;2023-02-01T00:32:14;4.20;99.90
4757;DHT22;2392;52.578;13.426;2023-02-01T00:34:41;4.20;99.90
4757;DHT22;2392;52.578;13.426;2023-02-01T00:37:08;4.20;99.90
4757;DHT22;2392;52.578;13.426;2023-02-01T00:39:35;4.20;99.90
4757;DHT22;2392;52.578;13.426;2023-02-01T00:42:02;4.30;99.90
4757;DHT22;2392;52.578;13.426;2023-02-01T00:44:30;4.30;99.90
4757;DHT22;2392;52.578;13.426;2023-02-01T00:47:00;4.30;99.90
4757;DHT22;2392;52.578;13.426;2023-02-01T00:49:27;4.40;99.90
4757;DHT22;2392;52.578;13.426;2023-02-01T00:51:54;4.40;99.90
4757;DHT22;2392;52.578;13.426;2023-02-01T00:54:21;4.50;99.90
4757;DHT22;2392;52.578;13.426;2023-02-01T00:56:48;4.50;99.90
4757;DHT22;2392;52.578;13.426;2023-02-01T00:59:17;4.50;99.90
4757;DHT22;2392;52.578;13.426;2023-02-01T01:01:46;4.60;99.90
4757;DHT22;2392;52.578;13.426;2023-02-01T01:04:13;4.60;99.90
4757;DHT22;2392;52.578;13.426;2023-02-01T01:06:40;4.60;99.90
4757;DHT22;2392;52.578;13.426;2023-02-01T01:09:07;4.60;99.90
4757;DHT22;2392;52.578;13.426;2023-02-01T01:11:36;4.60;99.90
4757;DHT22;2392;52.578;13.426;2023-02-01T01:14:06;4.50;99.90
4757;DHT22;2392;52.578;13.426;2023-02-01T01:16:35;4.50;99.90
4757;DHT22;2392;52.578;13.426;2023-02-01T01:19:03;4.50;99.90
4757;DHT22;2392;52.578;13.426;2023-02-01T01:21:31;4.50;99.90
4757;DHT22;2392;52.578;13.426;2023-02-01T01:23:58;4.50;99.90
4757;DHT22;2392;52.578;13.426;2023-02-01T01:26:27;4.40;99.90
4757;DHT22;2392;52.578;13.426;2023-02-01T01:28:55;4.40;99.90
4757;DHT22;2392;52.578;13.426;2023-02-01T01:31:22;4.40;99.90
4757;DHT22;2392;52.578;13.426;2023-02-01T01:33:50;4.40;99.90
4757;DHT22;2392;52.578;13.426;2023-02-01T01:36:19;4.40;99.90
4757;DHT22;2392;52.578;13.426;2023-02-01T01:38:46;4.40;99.90
4757;DHT22;2392;52.578;13.426;2023-02-01T01:41:16;4.40;99.90
4757;DHT22;2392;52.578;13.426;2023-02-01T01:43:47;4.40;99.90
4757;DHT22;2392;52.578;13.426;2023-02-01T01:46:17;4.30;99.90
4757;DHT22;2392;52.578;13.426;2023-02-01T01:48:48;4.30;99.90
4757;DHT22;2392;52.578;13.426;2023-02-01T01:51:20;4.30;99.90
4757;DHT22;2392;52.578;13.426;2023-02-01T01:53:53;4.30;99.90
4757;DHT22;2392;52.578;13.426;2023-02-01T01:56:22;4.30;99.90
4757;DHT22;2392;52.578;13.426;2023-02-01T01:58:49;4.30;99.90
4757;DHT22;2392;52.578;13.426;2023-02-01T02:01:16;4.40;99.90
4757;DHT22;2392;52.578;13.426;2023-02-01T02:03:44;4.30;99.90
4757;DHT22;2392;52.578;13.426;2023-02-01T02:06:20;4.40;99.90
4757;DHT22;2392;52.578;13.426;2023-02-01T02:08:50;4.40;99.90
4757;DHT22;2392;52.578;13.426;2023-02-01T02:11:17;4.40;99.90
4757;DHT22;2392;52.578;13.426;2023-02-01T02:13:46;4.40;99.90
4757;DHT22;2392;52.578;13.426;2023-02-01T02:16:36;4.40;99.90
4757;DHT22;2392;52.578;13.426;2023-02-01T02:19:47;4.50;99.90
4757;DHT22;2392;52.578;13.426;2023-02-01T02:22:41;4.50;99.90
4757;DHT22;2392;52.578;13.426;2023-02-01T02:28:46;4.50;99.90
4757;DHT22;2392;52.578;13.426;2023-02-01T02:34:14;4.50;99.90
4757;DHT22;2392;52.578;13.426;2023-02-01T02:36:52;4.50;99.90
4757;DHT22;2392;52.578;13.426;2023-02-01T02:39:29;4.50;99.90
4757;DHT22;2392;52.578;13.426;2023-02-01T02:42:04;4.50;99.90
4757;DHT22;2392;52.578;13.426;2023-02-01T02:44:56;4.50;99.90
4757;DHT22;2392;52.578;13.426;2023-02-01T02:47:46;4.50;99.90
4757;DHT22;2392;52.578;13.426;2023-02-01T02:50:23;4.50;99.90
4757;DHT22;2392;52.578;13.426;2023-02-01T02:53:13;4.50;99.90
4757;DHT22;2392;52.578;13.426;2023-02-01T02:55:59;4.50;99.90
4757;DHT22;2392;52.578;13.426;2023-02-01T02:58:46;4.50;99.90
4757;DHT22;2392;52.578;13.426;2023-02-01T03:01:32;4.50;99.90
4757;DHT22;2392;52.578;13.426;2023-02-01T03:04:17;4.50;99.90
4757;DHT22;2392;52.578;13.426;2023-02-01T03:06:49;4.50;99.90
4757;DHT22;2392;52.578;13.426;2023-02-01T03:09:21;4.50;99.90
4757;DHT22;2392;52.578;13.426;2023-02-01T03:11:52;4.50;99.90
4757;DHT22;2392;52.578;13.426;2023-02-01T03:14:43;4.60;99.90
4757;DHT22;2392;52.578;13.426;2023-02-01T03:17:15;4.60;99.90
4757;DHT22;2392;52.578;13.426;2023-02-01T03:19:46;4.50;99.90
4757;DHT22;2392;52.578;13.426;2023-02-01T03:22:20;4.50;99.90
4757;DHT22;2392;52.578;13.426;2023-02-01T03:24:51;4.50;99.90
4757;DHT22;2392;52.578;13.426;2023-02-01T03:27:23;4.50;99.90
4757;DHT22;2392;52.578;13.426;2023-02-01T03:29:56;4.50;99.90
4757;DHT22;2392;52.578;13.426;2023-02-01T03:32:26;4.50;99.90
4757;DHT22;2392;52.578;13.426;2023-02-01T03:34:54;4.50;99.90
4757;DHT22;2392;52.578;13.426;2023-02-01T03:37:25;4.50;99.90
4757;DHT22;2392;52.578;13.426;2023-02-01T03:39:57;4.50;99.90
4757;DHT22;2392;52.578;13.426;2023-02-01T03:42:30;4.50;99.90
4757;DHT22;2392;52.578;13.426;2023-02-01T03:45:04;4.60;99.90
4757;DHT22;2392;52.578;13.426;2023-02-01T03:47:35;4.50;99.90
4757;DHT22;2392;52.578;13.426;2023-02-01T03:50:06;4.50;99.90
4757;DHT22;2392;52.578;13.426;2023-02-01T03:52:39;4.60;99.90
4757;DHT22;2392;52.578;13.426;2023-02-01T03:55:08;4.60;99.90
4757;DHT22;2392;52.578;13.426;2023-02-01T03:57:41;4.60;99.90
4757;DHT22;2392;52.578;13.426;2023-02-01T04:00:18;4.60;99.90
4757;DHT22;2392;52.578;13.426;2023-02-01T04:02:50;4.50;99.90
4757;DHT22;2392;52.578;13.426;2023-02-01T04:05:17;4.50;99.90
4757;DHT22;2392;52.578;13.426;2023-02-01T04:08:04;4.50;99.90
4757;DHT22;2392;52.578;13.426;2023-02-01T04:10:31;4.50;99.90
4757;DHT22;2392;52.578;13.426;2023-02-01T04:12:58;4.60;99.90
4757;DHT22;2392;52.578;13.426;2023-02-01T04:15:25;4.60;99.90
4757;DHT22;2392;52.578;13.426;2023-02-01T04:17:52;4.70;99.90
4757;DHT22;2392;52.578;13.426;2023-02-01T04:20:19;4.70;99.90
4757;DHT22;2392;52.578;13.426;2023-02-01T04:22:46;4.70;99.90
4757;DHT22;2392;52.578;13.426;2023-02-01T04:25:15;4.80;99.90
4757;DHT22;2392;52.578;13.426;2023-02-01T04:27:46;4.80;99.90
4757;DHT22;2392;52.578;13.426;2023-02-01T04:30:13;4.80;99.90
4757;DHT22;2392;52.578;13.426;2023-02-01T04:32:40;4.80;99.90
4757;DHT22;2392;52.578;13.426;2023-02-01T04:35:08;4.80;99.90
4757;DHT22;2392;52.578;13.426;2023-02-01T04:37:35;4.80;99.90
4757;DHT22;2392;52.578;13.426;2023-02-01T04:40:03;4.80;99.90
4757;DHT22;2392;52.578;13.426;2023-02-01T04:42:31;4.80;99.90
4757;DHT22;2392;52.578;13.426;2023-02-01T04:44:58;4.90;99.90
4757;DHT22;2392;52.578;13.426;2023-02-01T04:47:25;4.90;99.90
4757;DHT22;2392;52.578;13.426;2023-02-01T04:49:52;5.00;99.90
4757;DHT22;2392;52.578;13.426;2023-02-01T04:52:19;5.00;99.90
4757;DHT22;2392;52.578;13.426;2023-02-01T04:54:46;5.00;99.90
4757;DHT22;2392;52.578;13.426;2023-02-01T04:57:13;5.00;99.90
4757;DHT22;2392;52.578;13.426;2023-02-01T04:59:41;5.10;99.90
4757;DHT22;2392;52.578;13.426;2023-02-01T05:02:08;5.10;99.90
4757;DHT22;2392;52.578;13.426;2023-02-01T05:04:35;5.10;99.90
4757;DHT22;2392;52.578;13.426;2023-02-01T05:07:02;5.10;99.90
4757;DHT22;2392;52.578;13.426;2023-02-01T05:09:29;5.20;99.90
4757;DHT22;2392;52.578;13.426;2023-02-01T05:11:56;5.20;99.90
4757;DHT22;2392;52.578;13.426;2023-02-01T05:14:42;5.20;99.90
4757;DHT22;2392;52.578;13.426;2023-02-01T05:17:09;5.20;99.90
4757;DHT22;2392;52.578;13.426;2023-02-01T05:19:36;5.20;99.90
4757;DHT22;2392;52.578;13.426;2023-02-01T05:22:03;5.20;99.90
4757;DHT22;2392;52.578;13.426;2023-02-01T05:24:30;5.20;99.90
4757;DHT22;2392;52.578;13.426;2023-02-01T05:26:57;5.30;99.90
4757;DHT22;2392;52.578;13.426;2023-02-01T05:29:24;5.30;99.90
4757;DHT22;2392;52.578;13.426;2023-02-01T05:31:52;5.30;99.90
4757;DHT22;2392;52.578;13.426;2023-02-01T05:34:19;5.30;99.90
4757;DHT22;2392;52.578;13.426;2023-02-01T05:36:46;5.30;99.90
4757;DHT22;2392;52.578;13.426;2023-02-01T05:39:13;5.40;99.90
4757;DHT22;2392;52.578;13.426;2023-02-01T05:41:40;5.40;99.90
4757;DHT22;2392;52.578;13.426;2023-02-01T05:44:07;5.40;99.90
4757;DHT22;2392;52.578;13.426;2023-02-01T05:46:34;5.40;99.90
4757;DHT22;2392;52.578;13.426;2023-02-01T05:49:03;5.40;99.90
4757;DHT22;2392;52.578;13.426;2023-02-01T05:51:30;5.50;99.90
4757;DHT22;2392;52.578;13.426;2023-02-01T05:53:57;5.50;99.90
4757;DHT22;2392;52.578;13.426;2023-02-01T05:56:24;5.50;99.90
4757;DHT22;2392;52.578;13.426;2023-02-01T05:58:51;5.50;99.90
4757;DHT22;2392;52.578;13.426;2023-02-01T06:01:18;5.50;99.90
4757;DHT22;2392;52.578;13.426;2023-02-01T06:03:45;5.50;99.90
4757;DHT22;2392;52.578;13.426;2023-02-01T06:06:13;5.50;99.90
4757;DHT22;2392;52.578;13.426;2023-02-01T06:08:40;5.50;99.90
4757;DHT22;2392;52.578;13.426;2023-02-01T06:11:07;5.60;99.90
4757;DHT22;2392;52.578;13.426;2023-02-01T06:13:34;5.60;99.90
4757;DHT22;2392;52.578;13.426;2023-02-01T06:16:04;5.60;99.90
4757;DHT22;2392;52.578;13.426;2023-02-01T06:18:33;5.60;99.90
4757;DHT22;2392;52.578;13.426;2023-02-01T06:21:00;5.60;99.90
4757;DHT22;2392;52.578;13.426;2023-02-01T06:23:29;5.60;99.90
4757;DHT22;2392;52.578;13.426;2023-02-01T06:26:02;5.50;99.90
4757;DHT22;2392;52.578;13.426;2023-02-01T06:28:30;5.50;99.90
4757;DHT22;2392;52.578;13.426;2023-02-01T06:30:57;5.50;99.90
4757;DHT22;2392;52.578;13.426;2023-02-01T06:33:24;5.50;99.90
4757;DHT22;2392;52.578;13.426;2023-02-01T06:35:57;5.40;99.90
4757;DHT22;2392;52.578;13.426;2023-02-01T06:38:24;5.40;99.90
4757;DHT22;2392;52.578;13.426;2023-02-01T06:40:57;5.30;99.90
4757;DHT22;2392;52.578;13.426;2023-02-01T06:43:26;5.30;99.90
4757;DHT22;2392;52.578;13.426;2023-02-01T06:45:58;5.30;99.90
4757;DHT22;2392;52.578;13.426;2023-02-01T06:48:25;5.20;99.90
4757;DHT22;2392;52.578;13.426;2023-02-01T06:50:52;5.20;99.90
4757;DHT22;2392;52.578;13.426;2023-02-01T06:53:19;5.20;99.90
4757;DHT22;2392;52.578;13.426;2023-02-01T06:55:58;5.20;99.90
4757;DHT22;2392;52.578;13.426;2023-02-01T06:58:28;5.20;99.90
4757;DHT22;2392;52.578;13.426;2023-02-01T07:00:55;5.10;99.90
4757;DHT22;2392;52.578;13.426;2023-02-01T07:03:22;5.10;99.90
4757;DHT22;2392;52.578;13.426;2023-02-01T07:05:49;5.10;99.90
4757;DHT22;2392;52.578;13.426;2023-02-01T07:08:16;5.10;99.90
4757;DHT22;2392;52.578;13.426;2023-02-01T07:10:43;5.20;99.90
4757;DHT22;2392;52.578;13.426;2023-02-01T07:13:11;5.20;99.90
4757;DHT22;2392;52.578;13.426;2023-02-01T07:15:38;5.20;99.90
4757;DHT22;2392;52.578;13.426;2023-02-01T07:18:05;5.30;99.90
4757;DHT22;2392;52.578;13.426;2023-02-01T07:20:32;5.30;99.90
4757;DHT22;2392;52.578;13.426;2023-02-01T07:22:59;5.30;99.90
4757;DHT22;2392;52.578;13.426;2023-02-01T07:25:26;5.30;99.90
4757;DHT22;2392;52.578;13.426;2023-02-01T07:27:53;5.30;99.90
4757;DHT22;2392;52.578;13.426;2023-02-01T07:30:22;5.20;99.90
4757;DHT22;2392;52.578;13.426;2023-02-01T07:32:49;5.20;99.90
4757;DHT22;2392;52.578;13.426;2023-02-01T07:35:16;5.20;99.90
4757;DHT22;2392;52.578;13.426;2023-02-01T07:37:43;5.20;99.90
4757;DHT22;2392;52.578;13.426;2023-02-01T07:40:11;5.20;99.90
4757;DHT22;2392;52.578;13.426;2023-02-01T07:42:38;5.30;99.90
4757;DHT22;2392;52.578;13.426;2023-02-01T07:45:06;5.30;99.90
4757;DHT22;2392;52.578;13.426;2023-02-01T07:47:34;5.30;99.90
4757;DHT22;2392;52.578;13.426;2023-02-01T07:50:01;5.30;99.90
4757;DHT22;2392;52.578;13.426;2023-02-01T07:52:28;5.30;99.90
4757;DHT22;2392;52.578;13.426;2023-02-01T07:54:55;5.30;99.90
4757;DHT22;2392;52.578;13.426;2023-02-01T07:57:22;5.20;99.90
4757;DHT22;2392;52.578;13.426;2023-02-01T07:59:49;5.20;99.90
4757;DHT22;2392;52.578;13.426;2023-02-01T08:02:39;5.10;99.90
4757;DHT22;2392;52.578;13.426;2023-02-01T08:05:07;5.00;99.90
4757;DHT22;2392;52.578;13.426;2023-02-01T08:07:34;4.90;99.90
4757;DHT22;2392;52.578;13.426;2023-02-01T08:10:01;4.70;99.90
4757;DHT22;2392;52.578;13.426;2023-02-01T08:12:31;4.70;99.90
4757;DHT22;2392;52.578;13.426;2023-02-01T08:14:58;4.50;99.90
4757;DHT22;2392;52.578;13.426;2023-02-01T08:17:25;4.40;99.90
4757;DHT22;2392;52.578;13.426;2023-02-01T08:19:55;4.30;99.90
4757;DHT22;2392;52.578;13.426;2023-02-01T08:22:22;4.30;99.90
4757;DHT22;2392;52.578;13.426;2023-02-01T08:24:49;4.30;99.90
4757;DHT22;2392;52.578;13.426;2023-02-01T08:27:16;4.20;99.90
4757;DHT22;2392;52.578;13.426;2023-02-01T08:29:43;4.20;99.90
4757;DHT22;2392;52.578;13.426;2023-02-01T08:32:10;4.20;99.90
4757;DHT22;2392;52.578;13.426;2023-02-01T08:34:37;4.10;99.90
4757;DHT22;2392;52.578;13.426;2023-02-01T08:37:05;4.10;99.90
4757;DHT22;2392;52.578;13.426;2023-02-01T08:39:32;4.10;99.90
4757;DHT22;2392;52.578;13.426;2023-02-01T08:41:59;4.10;99.90
4757;DHT22;2392;52.578;13.426;2023-02-01T08:44:44;4.10;99.90
4757;DHT22;2392;52.578;13.426;2023-02-01T08:47:11;4.10;99.90
4757;DHT22;2392;52.578;13.426;2023-02-01T08:49:38;4.10;99.90
4757;DHT22;2392;52.578;13.426;2023-02-01T08:52:06;4.10;99.90
4757;DHT22;2392;52.578;13.426;2023-02-01T08:54:33;4.10;99.90
4757;DHT22;2392;52.578;13.426;2023-02-01T08:57:00;4.10;99.90
4757;DHT22;2392;52.578;13.426;2023-02-01T08:59:28;4.10;99.90
4757;DHT22;2392;52.578;13.426;2023-02-01T09:01:55;4.10;99.90
4757;DHT22;2392;52.578;13.426;2023-02-01T09:04:22;4.10;99.90
4757;DHT22;2392;52.578;13.426;2023-02-01T09:06:49;4.10;99.90
4757;DHT22;2392;52.578;13.426;2023-02-01T09:09:17;4.20;99.90
4757;DHT22;2392;52.578;13.426;2023-02-01T09:11:44;4.10;99.90
4757;DHT22;2392;52.578;13.426;2023-02-01T09:14:11;4.20;99.90
4757;DHT22;2392;52.578;13.426;2023-02-01T09:16:38;4.20;99.90
4757;DHT22;2392;52.578;13.426;2023-02-01T09:19:05;4.20;99.90
4757;DHT22;2392;52.578;13.426;2023-02-01T09:21:32;4.30;99.90
4757;DHT22;2392;52.578;13.426;2023-02-01T09:24:00;4.30;99.90
4757;DHT22;2392;52.578;13.426;2023-02-01T09:26:28;4.40;99.90
4757;DHT22;2392;52.578;13.426;2023-02-01T09:28:55;4.50;99.90
4757;DHT22;2392;52.578;13.426;2023-02-01T09:31:22;4.50;99.90
4757;DHT22;2392;52.578;13.426;2023-02-01T09:33:49;4.60;99.90
4757;DHT22;2392;52.578;13.426;2023-02-01T09:36:16;4.60;99.90
4757;DHT22;2392;52.578;13.426;2023-02-01T09:38:45;4.60;99.90
4757;DHT22;2392;52.578;13.426;2023-02-01T09:41:24;4.60;99.90
4757;DHT22;2392;52.578;13.426;2023-02-01T09:43:59;4.60;99.90
4757;DHT22;2392;52.578;13.426;2023-02-01T09:46:32;4.70;99.90
4757;DHT22;2392;52.578;13.426;2023-02-01T09:49:02;4.70;99.90
4757;DHT22;2392;52.578;13.426;2023-02-01T09:51:34;4.70;99.90
4757;DHT22;2392;52.578;13.426;2023-02-01T09:54:08;4.80;99.90
4757;DHT22;2392;52.578;13.426;2023-02-01T09:56:41;4.80;99.90
4757;DHT22;2392;52.578;13.426;2023-02-01T09:59:23;4.80;99.90
4757;DHT22;2392;52.578;13.426;2023-02-01T10:01:53;4.80;99.90
4757;DHT22;2392;52.578;13.426;2023-02-01T10:04:20;4.80;99.90
4757;DHT22;2392;52.578;13.426;2023-02-01T10:06:58;4.80;99.90
4757;DHT22;2392;52.578;13.426;2023-02-01T10:09:37;4.80;99.90
4757;DHT22;2392;52.578;13.426;2023-02-01T10:15:30;4.90;99.90
4757;DHT22;2392;52.578;13.426;2023-02-01T10:18:14;4.80;99.90
4757;DHT22;2392;52.578;13.426;2023-02-01T10:20:52;4.80;99.90
4757;DHT22;2392;52.578;13.426;2023-02-01T10:23:37;4.80;99.90
4757;DHT22;2392;52.578;13.426;2023-02-01T10:26:15;4.80;99.90
4757;DHT22;2392;52.578;13.426;2023-02-01T10:28:46;4.70;99.90
4757;DHT22;2392;52.578;13.426;2023-02-01T10:31:17;4.70;99.90
4757;DHT22;2392;52.578;13.426;2023-02-01T10:33:45;4.80;99.90
4757;DHT22;2392;52.578;13.426;2023-02-01T10:36:16;4.80;99.90
4757;DHT22;2392;52.578;13.426;2023-02-01T10:38:44;4.90;99.90
4757;DHT22;2392;52.578;13.426;2023-02-01T10:41:14;4.90;99.90
4757;DHT22;2392;52.578;13.426;2023-02-01T10:43:42;5.00;99.90
4757;DHT22;2392;52.578;13.426;2023-02-01T10:46:10;5.10;99.90
4757;DHT22;2392;52.578;13.426;2023-02-01T10:48:38;5.20;99.90
4757;DHT22;2392;52.578;13.426;2023-02-01T10:51:10;5.30;99.90
4757;DHT22;2392;52.578;13.426;2023-02-01T10:53:43;5.30;99.90
4757;DHT22;2392;52.578;13.426;2023-02-01T10:56:12;5.20;99.90
4757;DHT22;2392;52.578;13.426;2023-02-01T10:58:44;5.20;99.90
4757;DHT22;2392;52.578;13.426;2023-02-01T11:01:17;5.10;99.90
4757;DHT22;2392;52.578;13.426;2023-02-01T11:03:52;5.10;99.90
4757;DHT22;2392;52.578;13.426;2023-02-01T11:06:26;5.00;99.90
4757;DHT22;2392;52.578;13.426;2023-02-01T11:08:55;5.00;99.90
4757;DHT22;2392;52.578;13.426;2023-02-01T11:11:23;5.10;99.90
4757;DHT22;2392;52.578;13.426;2023-02-01T11:13:56;5.30;99.90
4757;DHT22;2392;52.578;13.426;2023-02-01T11:16:30;5.60;99.90
4757;DHT22;2392;52.578;13.426;2023-02-01T11:18:59;5.90;99.90
4757;DHT22;2392;52.578;13.426;2023-02-01T11:21:26;6.00;99.90
4757;DHT22;2392;52.578;13.426;2023-02-01T11:23:54;6.00;99.90
4757;DHT22;2392;52.578;13.426;2023-02-01T11:26:22;5.90;99.90
4757;DHT22;2392;52.578;13.426;2023-02-01T11:28:57;5.80;99.90
4757;DHT22;2392;52.578;13.426;2023-02-01T11:31:26;6.00;99.90
4757;DHT22;2392;52.578;13.426;2023-02-01T11:33:57;6.30;99.90
4757;DHT22;2392;52.578;13.426;2023-02-01T11:36:27;6.60;99.90
4757;DHT22;2392;52.578;13.426;2023-02-01T11:39:09;6.70;99.90
4757;DHT22;2392;52.578;13.426;2023-02-01T11:41:54;6.70;99.90
4757;DHT22;2392;52.578;13.426;2023-02-01T11:44:22;6.70;99.90
4757;DHT22;2392;52.578;13.426;2023-02-01T11:46:51;6.70;99.90
4757;DHT22;2392;52.578;13.426;2023-02-01T11:49:23;6.60;99.90
4757;DHT22;2392;52.578;13.426;2023-02-01T11:52:05;6.60;99.90
4757;DHT22;2392;52.578;13.426;2023-02-01T11:54:50;6.50;99.90
4757;DHT22;2392;52.578;13.426;2023-02-01T11:57:35;6.40;99.90
4757;DHT22;2392;52.578;13.426;2023-02-01T12:00:27;6.40;99.90
4757;DHT22;2392;52.578;13.426;2023-02-01T12:03:13;6.30;99.90
4757;DHT22;2392;52.578;13.426;2023-02-01T12:05:50;6.40;99.90
4757;DHT22;2392;52.578;13.426;2023-02-01T12:08:36;6.40;99.90
4757;DHT22;2392;52.578;13.426;2023-02-01T12:11:26;6.60;99.90
4757;DHT22;2392;52.578;13.426;2023-02-01T12:14:07;7.10;99.90
4757;DHT22;2392;52.578;13.426;2023-02-01T12:16:42;7.50;99.90
4757;DHT22;2392;52.578;13.426;2023-02-01T12:19:36;7.70;99.90
4757;DHT22;2392;52.578;13.426;2023-02-01T12:22:16;7.60;99.90
4757;DHT22;2392;52.578;13.426;2023-02-01T12:25:18;7.50;99.90
4757;DHT22;2392;52.578;13.426;2023-02-01T12:31:04;7.20;99.90
4757;DHT22;2392;52.578;13.426;2023-02-01T12:33:44;7.10;99.90
4757;DHT22;2392;52.578;13.426;2023-02-01T12:36:21;6.90;99.90
4757;DHT22;2392;52.578;13.426;2023-02-01T12:38:54;6.80;99.90
4757;DHT22;2392;52.578;13.426;2023-02-01T12:41:47;6.70;99.90
4757;DHT22;2392;52.578;13.426;2023-02-01T12:44:25;6.70;99.90
4757;DHT22;2392;52.578;13.426;2023-02-01T12:46:56;6.60;99.90
4757;DHT22;2392;52.578;13.426;2023-02-01T12:49:30;6.50;99.90
4757;DHT22;2392;52.578;13.426;2023-02-01T12:52:01;6.40;99.90
4757;DHT22;2392;52.578;13.426;2023-02-01T12:54:35;6.40;99.90
4757;DHT22;2392;52.578;13.426;2023-02-01T12:57:10;6.30;99.90
4757;DHT22;2392;52.578;13.426;2023-02-01T12:59:42;6.30;99.90
4757;DHT22;2392;52.578;13.426;2023-02-01T13:02:15;6.30;99.90
4757;DHT22;2392;52.578;13.426;2023-02-01T13:04:56;6.30;99.90
4757;DHT22;2392;52.578;13.426;2023-02-01T13:07:30;6.40;99.90
4757;DHT22;2392;52.578;13.426;2023-02-01T13:10:02;6.40;99.90
4757;DHT22;2392;52.578;13.426;2023-02-01T13:12:34;6.40;99.90
4757;DHT22;2392;52.578;13.426;2023-02-01T13:15:05;6.30;99.90
4757;DHT22;2392;52.578;13.426;2023-02-01T13:17:37;5.90;99.90
4757;DHT22;2392;52.578;13.426;2023-02-01T13:20:15;5.50;99.90
4757;DHT22;2392;52.578;13.426;2023-02-01T13:22:45;5.20;99.90
4757;DHT22;2392;52.578;13.426;2023-02-01T13:25:15;4.90;99.90
4757;DHT22;2392;52.578;13.426;2023-02-01T13:27:46;4.80;99.90
4757;DHT22;2392;52.578;13.426;2023-02-01T13:30:17;4.70;99.90
4757;DHT22;2392;52.578;13.426;2023-02-01T13:33:19;4.70;99.90
4757;DHT22;2392;52.578;13.426;2023-02-01T13:36:10;4.70;99.90
4757;DHT22;2392;52.578;13.426;2023-02-01T13:39:05;4.80;99.90
4757;DHT22;2392;52.578;13.426;2023-02-01T13:41:42;4.80;99.90
4757;DHT22;2392;52.578;13.426;2023-02-01T13:44:24;4.90;99.90
4757;DHT22;2392;52.578;13.426;2023-02-01T13:46:56;5.00;99.90
4757;DHT22;2392;52.578;13.426;2023-02-01T13:49:26;5.20;99.90
4757;DHT22;2392;52.578;13.426;2023-02-01T13:51:55;5.30;99.90
4757;DHT22;2392;52.578;13.426;2023-02-01T13:54:26;5.50;99.90
4757;DHT22;2392;52.578;13.426;2023-02-01T13:56:54;5.60;99.90
4757;DHT22;2392;52.578;13.426;2023-02-01T13:59:52;5.70;99.90
4757;DHT22;2392;52.578;13.426;2023-02-01T14:02:51;5.90;99.90
4757;DHT22;2392;52.578;13.426;2023-02-01T14:06:00;5.90;99.90
4757;DHT22;2392;52.578;13.426;2023-02-01T14:08:43;6.00;99.90
4757;DHT22;2392;52.578;13.426;2023-02-01T14:11:39;6.10;99.90
4757;DHT22;2392;52.578;13.426;2023-02-01T14:17:53;6.10;99.90
4757;DHT22;2392;52.578;13.426;2023-02-01T14:20:45;6.10;99.90
4757;DHT22;2392;52.578;13.426;2023-02-01T14:23:23;6.00;99.90
4757;DHT22;2392;52.578;13.426;2023-02-01T14:26:16;5.90;99.90
4757;DHT22;2392;52.578;13.426;2023-02-01T14:28:57;5.70;99.90
4757;DHT22;2392;52.578;13.426;2023-02-01T14:31:40;5.60;99.90
4757;DHT22;2392;52.578;13.426;2023-02-01T14:34:26;5.50;99.90
4757;DHT22;2392;52.578;13.426;2023-02-01T14:36:57;5.40;99.90
4757;DHT22;2392;52.578;13.426;2023-02-01T14:39:31;5.40;99.90
4757;DHT22;2392;52.578;13.426;2023-02-01T14:42:03;5.40;99.90
4757;DHT22;2392;52.578;13.426;2023-02-01T14:44:37;5.40;99.90
4757;DHT22;2392;52.578;13.426;2023-02-01T14:50:31;5.50;99.90
4757;DHT22;2392;52.578;13.426;2023-02-01T14:53:12;5.50;99.90
4757;DHT22;2392;52.578;13.426;2023-02-01T14:55:42;5.50;99.90
4757;DHT22;2392;52.578;13.426;2023-02-01T14:58:16;5.50;99.90
4757;DHT22;2392;52.578;13.426;2023-02-01T15:00:51;5.50;99.90
4757;DHT22;2392;52.578;13.426;2023-02-01T15:03:47;5.50;99.90
4757;DHT22;2392;52.578;13.426;2023-02-01T15:09:14;5.70;99.90
4757;DHT22;2392;52.578;13.426;2023-02-01T15:11:59;5.70;99.90
4757;DHT22;2392;52.578;13.426;2023-02-01T15:14:27;5.70;99.90
4757;DHT22;2392;52.578;13.426;2023-02-01T15:16:54;5.80;99.90
4757;DHT22;2392;52.578;13.426;2023-02-01T15:19:23;5.80;99.90
4757;DHT22;2392;52.578;13.426;2023-02-01T15:21:54;5.70;99.90
4757;DHT22;2392;52.578;13.426;2023-02-01T15:24:23;5.70;99.90
4757;DHT22;2392;52.578;13.426;2023-02-01T15:26:50;5.60;99.90
4757;DHT22;2392;52.578;13.426;2023-02-01T15:29:18;5.40;99.90
4757;DHT22;2392;52.578;13.426;2023-02-01T15:31:48;5.30;99.90
4757;DHT22;2392;52.578;13.426;2023-02-01T15:34:16;5.20;99.90
4757;DHT22;2392;52.578;13.426;2023-02-01T15:36:44;5.10;99.90
4757;DHT22;2392;52.578;13.426;2023-02-01T15:39:15;5.00;99.90
4757;DHT22;2392;52.578;13.426;2023-02-01T15:41:47;5.00;99.90
4757;DHT22;2392;52.578;13.426;2023-02-01T15:44:18;4.90;99.90
4757;DHT22;2392;52.578;13.426;2023-02-01T15:46:48;4.80;99.90
4757;DHT22;2392;52.578;13.426;2023-02-01T15:49:20;4.70;99.90
4757;DHT22;2392;52.578;13.426;2023-02-01T15:51:50;4.60;99.90
4757;DHT22;2392;52.578;13.426;2023-02-01T15:54:22;4.50;99.90
4757;DHT22;2392;52.578;13.426;2023-02-01T15:56:52;4.40;99.90
4757;DHT22;2392;52.578;13.426;2023-02-01T15:59:21;4.40;99.90
4757;DHT22;2392;52.578;13.426;2023-02-01T16:01:49;4.20;99.90
4757;DHT22;2392;52.578;13.426;2023-02-01T16:04:20;4.10;99.90
4757;DHT22;2392;52.578;13.426;2023-02-01T16:06:49;3.80;99.90
4757;DHT22;2392;52.578;13.426;2023-02-01T16:09:19;3.70;99.90
4757;DHT22;2392;52.578;13.426;2023-02-01T16:11:51;3.60;99.90
4757;DHT22;2392;52.578;13.426;2023-02-01T16:14:19;3.50;99.90
4757;DHT22;2392;52.578;13.426;2023-02-01T16:16:46;3.30;99.90
4757;DHT22;2392;52.578;13.426;2023-02-01T16:19:14;3.20;99.90
4757;DHT22;2392;52.578;13.426;2023-02-01T16:21:41;3.20;99.90
4757;DHT22;2392;52.578;13.426;2023-02-01T16:24:08;3.20;99.90
4757;DHT22;2392;52.578;13.426;2023-02-01T16:26:36;3.20;99.90
4757;DHT22;2392;52.578;13.426;2023-02-01T16:29:04;3.10;99.90
4757;DHT22;2392;52.578;13.426;2023-02-01T16:31:35;3.20;99.90
4757;DHT22;2392;52.578;13.426;2023-02-01T16:34:03;3.20;99.90
4757;DHT22;2392;52.578;13.426;2023-02-01T16:36:30;3.20;99.90
4757;DHT22;2392;52.578;13.426;2023-02-01T16:38:57;3.20;99.90
4757;DHT22;2392;52.578;13.426;2023-02-01T16:41:26;3.20;99.90
4757;DHT22;2392;52.578;13.426;2023-02-01T16:43:56;3.20;99.90
4757;DHT22;2392;52.578;13.426;2023-02-01T16:46:24;3.20;99.90
4757;DHT22;2392;52.578;13.426;2023-02-01T16:48:54;3.20;99.90
4757;DHT22;2392;52.578;13.426;2023-02-01T16:51:23;3.20;99.90
4757;DHT22;2392;52.578;13.426;2023-02-01T16:53:50;3.20;99.90